Time;durP1;ratioP1;P1;durP2;ratioP2;P2;SDS_P1;SDS_P2;PMS_P1;PMS_P2;Temp;Humidity;BMP_temperature;BMP_pressure;BME280_temperature;BME280_humidity;BME280_pressure;Samples;Min_cycle;Max_cycle;Signal;HPM_P1;HPM_P2
2022/12/17 13:06:55;;;;;;;105.95;63.72;;;0.30;99.90;;;;;;5037792;28;20132;-70
2022/12/17 13:09:30;;;;;;;107.20;64.05;;;0.40;99.90;;;;;;5037897;28;20049;-70
2022/12/17 13:12:08;;;;;;;118.47;65.35;;;0.50;99.90;;;;;;5037825;28;20060;-70
2022/12/17 13:14:49;;;;;;;103.22;62.70;;;0.60;99.90;;;;;;5037875;28;20056;-69
2022/12/17 13:17:18;;;;;;;104.65;60.50;;;0.70;99.90;;;;;;4996009;28;20149;-69
2022/12/17 13:19:59;;;;;;;97.75;59.60;;;0.70;99.90;;;;;;5036263;28;20211;-70
2022/12/17 13:22:30;;;;;;;101.35;59.67;;;0.70;99.90;;;;;;5035530;28;20355;-70
2022/12/17 13:25:14;;;;;;;102.47;61.47;;;0.60;99.90;;;;;;5037129;28;20049;-70
2022/12/17 13:27:40;;;;;;;97.53;59.17;;;0.60;99.90;;;;;;5016817;28;20045;-71
2022/12/17 13:30:29;;;;;;;100.28;60.00;;;0.50;99.90;;;;;;5023989;28;20041;-70
2022/12/17 13:33:36;;;;;;;103.93;61.47;;;0.60;99.90;;;;;;5035779;28;20156;-69
2022/12/17 13:36:09;;;;;;;97.25;60.53;;;0.60;99.90;;;;;;5034706;28;20391;-69
2022/12/17 13:38:53;;;;;;;101.35;60.33;;;0.70;99.90;;;;;;5016845;28;20061;-69
2022/12/17 13:41:25;;;;;;;96.53;60.35;;;0.70;99.90;;;;;;5015076;28;20100;-71
2022/12/17 13:43:57;;;;;;;96.47;58.83;;;1.00;99.90;;;;;;5016184;28;20073;-69
2022/12/17 13:46:25;;;;;;;102.22;58.38;;;0.80;99.90;;;;;;5016606;28;20046;-69
2022/12/17 13:48:59;;;;;;;100.13;60.53;;;0.70;99.90;;;;;;5016484;28;20078;-69
2022/12/17 13:51:27;;;;;;;101.63;59.20;;;0.70;99.90;;;;;;5019869;28;20057;-69
2022/12/17 13:53:57;;;;;;;97.38;60.28;;;0.70;99.90;;;;;;5032140;28;20049;-69
2022/12/17 13:56:29;;;;;;;94.88;57.70;;;0.60;99.90;;;;;;5035990;28;20559;-69
2022/12/17 13:58:56;;;;;;;92.93;55.20;;;0.60;99.90;;;;;;5034079;28;20064;-69
2022/12/17 14:01:24;;;;;;;93.13;57.97;;;0.60;99.90;;;;;;5036819;28;20137;-68
2022/12/17 14:03:56;;;;;;;99.97;59.05;;;0.50;99.90;;;;;;5036072;28;20084;-68
2022/12/17 14:06:27;;;;;;;99.65;59.95;;;0.40;99.90;;;;;;5035326;28;20468;-69
2022/12/17 14:08:55;;;;;;;100.82;60.30;;;0.40;99.90;;;;;;5035850;28;20077;-69
2022/12/17 14:14:19;;;;;;;97.97;57.65;;;0.40;99.90;;;;;;5016439;28;20394;-69
2022/12/17 14:16:45;;;;;;;98.75;56.50;;;0.30;99.90;;;;;;5016767;28;20046;-68
2022/12/17 14:19:11;;;;;;;104.55;59.67;;;0.30;99.90;;;;;;5025673;28;20056;-68
2022/12/17 14:21:37;;;;;;;106.35;59.72;;;0.20;99.90;;;;;;5036245;28;20045;-69
2022/12/17 14:24:03;;;;;;;98.35;59.03;;;0.10;99.90;;;;;;5035892;28;20114;-70
2022/12/17 14:26:29;;;;;;;101.65;59.55;;;0.10;99.90;;;;;;5035940;28;20045;-70
2022/12/17 14:28:55;;;;;;;95.55;57.80;;;0.70;99.90;;;;;;5018417;28;20053;-70
2022/12/17 14:31:23;;;;;;;102.63;60.28;;;0.00;99.90;;;;;;5035728;28;20041;-70
2022/12/17 14:34:19;;;;;;;102.07;58.63;;;-0.10;99.90;;;;;;5035727;28;20046;-70
2022/12/17 14:36:45;;;;;;;105.05;59.78;;;-0.20;99.90;;;;;;5022467;28;20065;-70
2022/12/17 14:39:16;;;;;;;103.97;59.35;;;-0.20;99.90;;;;;;5035652;28;20116;-70
2022/12/17 14:44:28;;;;;;;105.15;59.15;;;-0.30;99.90;;;;;;5035583;28;20041;-70
2022/12/17 14:47:17;;;;;;;103.47;60.50;;;-0.30;99.90;;;;;;5035390;28;20370;-70
2022/12/17 14:49:55;;;;;;;109.05;61.60;;;-0.40;99.90;;;;;;5035252;28;20192;-69
2022/12/17 14:52:34;;;;;;;109.50;61.15;;;-0.50;99.90;;;;;;5035441;28;20053;-69
2022/12/17 14:55:00;;;;;;;107.18;60.22;;;-0.50;99.90;;;;;;5035542;28;20052;-69
2022/12/17 14:57:26;;;;;;;115.22;62.58;;;-0.50;99.90;;;;;;5035176;28;20167;-69
2022/12/17 14:59:51;;;;;;;116.82;62.35;;;-0.60;99.90;;;;;;5035324;28;20142;-69
2022/12/17 15:02:25;;;;;;;113.07;62.70;;;-0.70;99.90;;;;;;5035046;28;20552;-69
2022/12/17 15:04:54;;;;;;;119.53;63.03;;;-0.70;99.90;;;;;;5035433;28;20049;-69
2022/12/17 15:07:25;;;;;;;125.82;63.60;;;-0.70;99.90;;;;;;5035438;28;20057;-69
2022/12/17 15:09:52;;;;;;;117.47;61.95;;;-0.70;99.90;;;;;;5035207;28;20397;-69
2022/12/17 15:12:20;;;;;;;118.95;61.42;;;-0.70;99.90;;;;;;5017727;28;20484;-69
2022/12/17 15:14:45;;;;;;;118.82;60.85;;;-0.70;99.90;;;;;;5035106;28;20049;-69
2022/12/17 15:17:12;;;;;;;124.90;61.17;;;-0.70;99.90;;;;;;5034707;28;20052;-69
2022/12/17 15:19:37;;;;;;;120.47;61.20;;;-0.70;99.90;;;;;;5035006;28;20056;-69
2022/12/17 15:22:03;;;;;;;121.88;61.05;;;-0.70;99.90;;;;;;5035011;28;20041;-69
2022/12/17 15:24:29;;;;;;;122.07;61.20;;;-0.70;99.90;;;;;;5034836;28;20034;-71
2022/12/17 15:26:55;;;;;;;129.40;62.88;;;-0.70;99.90;;;;;;5035068;28;20091;-70
2022/12/17 15:29:23;;;;;;;125.65;61.80;;;-0.70;99.90;;;;;;5017942;28;20049;-70
2022/12/17 15:31:49;;;;;;;118.32;60.97;;;-0.70;99.90;;;;;;5034558;28;20132;-70
2022/12/17 15:34:14;;;;;;;119.10;60.60;;;-0.70;99.90;;;;;;5034729;28;20120;-70
2022/12/17 15:36:40;;;;;;;123.43;61.50;;;-0.80;99.90;;;;;;5034906;28;20140;-70
2022/12/17 15:39:07;;;;;;;130.95;62.60;;;-0.80;99.90;;;;;;5034703;28;20410;-70
2022/12/17 15:44:17;;;;;;;121.53;59.97;;;-0.80;99.90;;;;;;5034669;28;20049;-70
2022/12/17 15:46:42;;;;;;;119.68;58.35;;;-0.30;99.90;;;;;;5034883;28;20122;-70
2022/12/17 15:49:08;;;;;;;119.88;58.78;;;-0.80;99.90;;;;;;5034321;28;20045;-70
2022/12/17 15:51:33;;;;;;;119.95;58.50;;;-0.80;99.90;;;;;;5034483;28;20057;-70
2022/12/17 15:53:59;;;;;;;129.82;59.28;;;-0.90;99.90;;;;;;5034893;28;20088;-70
2022/12/17 15:56:27;;;;;;;115.65;55.72;;;-0.90;99.90;;;;;;5034780;28;20370;-70
2022/12/17 15:58:56;;;;;;;119.38;54.78;;;-0.90;99.90;;;;;;5034468;28;20440;-70
2022/12/17 16:01:21;;;;;;;120.65;56.85;;;-0.90;99.90;;;;;;5034446;28;20104;-70
2022/12/17 16:03:47;;;;;;;121.88;56.15;;;-1.00;99.90;;;;;;5034338;28;20449;-70
2022/12/17 16:06:12;;;;;;;125.45;56.63;;;-1.00;99.90;;;;;;5034294;28;20038;-70
2022/12/17 16:08:38;;;;;;;119.82;56.97;;;-1.00;99.90;;;;;;5034385;28;20077;-70
2022/12/17 16:11:09;;;;;;;119.30;56.92;;;-1.00;99.90;;;;;;5034174;28;20061;-70
2022/12/17 16:13:35;;;;;;;125.40;57.42;;;-1.50;99.90;;;;;;5034407;28;20104;-70
2022/12/17 16:16:01;;;;;;;123.20;56.88;;;-1.10;99.90;;;;;;5034394;28;20050;-70
2022/12/17 16:18:27;;;;;;;128.80;61.30;;;-1.10;99.90;;;;;;5016803;28;20468;-70
2022/12/17 16:20:52;;;;;;;125.32;60.22;;;-1.10;99.90;;;;;;5034188;28;20484;-70
2022/12/17 16:23:19;;;;;;;125.30;59.42;;;-1.10;99.90;;;;;;5034152;28;20034;-70
2022/12/17 16:25:54;;;;;;;123.32;57.80;;;-1.10;99.90;;;;;;5034280;28;20042;-70
2022/12/17 16:28:20;;;;;;;132.93;60.92;;;-1.10;99.90;;;;;;5034447;28;20053;-70
2022/12/17 16:31:07;;;;;;;124.47;56.00;;;-1.10;99.90;;;;;;5038241;28;20041;-70
2022/12/17 16:33:34;;;;;;;132.85;58.03;;;-1.10;99.90;;;;;;5038034;28;20500;-70
2022/12/17 16:36:00;;;;;;;121.55;56.60;;;-1.10;99.90;;;;;;5038092;28;20053;-70
2022/12/17 16:38:27;;;;;;;123.75;56.22;;;-1.10;99.90;;;;;;5020819;28;20508;-70
2022/12/17 16:41:01;;;;;;;125.97;57.55;;;-1.20;99.90;;;;;;5038174;28;20049;-70
2022/12/17 16:43:27;;;;;;;129.85;57.42;;;-1.20;99.90;;;;;;5038049;28;20517;-70
2022/12/17 16:45:54;;;;;;;122.43;55.30;;;-1.20;99.90;;;;;;5037621;28;20084;-70
2022/12/17 16:48:20;;;;;;;122.22;56.17;;;-0.50;99.90;;;;;;5037531;28;20124;-70
2022/12/17 16:50:48;;;;;;;128.75;55.70;;;-1.30;99.90;;;;;;5038209;28;20073;-70
2022/12/17 16:53:13;;;;;;;134.95;57.15;;;-1.30;99.90;;;;;;5020372;28;20420;-70
2022/12/17 16:55:45;;;;;;;132.80;57.30;;;-1.30;99.90;;;;;;5037847;28;20132;-70
2022/12/17 16:58:11;;;;;;;141.20;58.53;;;-1.20;99.90;;;;;;5037303;28;20136;-70
2022/12/17 17:00:37;;;;;;;132.60;57.63;;;-1.30;99.90;;;;;;5037494;28;20052;-70
2022/12/17 17:03:04;;;;;;;135.43;56.35;;;-1.30;99.90;;;;;;5036436;28;20470;-70
2022/12/17 17:05:34;;;;;;;134.38;56.42;;;-1.30;99.90;;;;;;5020523;28;20458;-70
2022/12/17 17:08:01;;;;;;;122.68;54.17;;;-1.30;99.90;;;;;;5037393;28;20454;-70
2022/12/17 17:10:27;;;;;;;114.65;52.15;;;-1.40;99.90;;;;;;5037451;28;20113;-70
2022/12/17 17:12:54;;;;;;;131.32;54.00;;;-1.40;99.90;;;;;;5037114;28;20473;-70
2022/12/17 17:15:21;;;;;;;128.05;55.95;;;-1.40;99.90;;;;;;5037363;28;20050;-70
2022/12/17 17:17:47;;;;;;;134.15;55.78;;;-1.40;99.90;;;;;;5037051;28;20045;-70
2022/12/17 17:20:13;;;;;;;142.13;57.65;;;-1.40;99.90;;;;;;5037340;28;20091;-70
2022/12/17 17:22:38;;;;;;;153.75;58.40;;;-1.40;99.90;;;;;;5036809;28;20084;-71
2022/12/17 17:25:04;;;;;;;147.18;57.45;;;-1.40;99.90;;;;;;5037237;28;20453;-70
2022/12/17 17:27:30;;;;;;;145.02;58.70;;;-1.40;99.90;;;;;;5037160;28;20128;-70
2022/12/17 17:29:57;;;;;;;146.68;58.97;;;-1.40;99.90;;;;;;5037427;28;20373;-70
2022/12/17 17:32:23;;;;;;;157.82;61.95;;;-1.50;99.90;;;;;;5036604;28;20465;-70
2022/12/17 17:34:49;;;;;;;162.45;64.32;;;-1.50;99.90;;;;;;5036999;28;20152;-70
2022/12/17 17:37:15;;;;;;;139.75;56.63;;;-1.50;99.90;;;;;;5036880;28;20069;-70
2022/12/17 17:39:40;;;;;;;151.25;60.22;;;-1.50;99.90;;;;;;5036525;28;20417;-70
2022/12/17 17:42:06;;;;;;;141.27;58.33;;;-1.50;99.90;;;;;;5036300;28;20042;-70
2022/12/17 17:44:31;;;;;;;141.07;58.10;;;-1.50;99.90;;;;;;5036581;28;20037;-70
2022/12/17 17:46:57;;;;;;;153.38;59.40;;;-1.50;99.90;;;;;;5036489;28;20041;-70
2022/12/17 17:49:23;;;;;;;146.68;56.45;;;-1.50;99.90;;;;;;5036624;28;20053;-70
2022/12/17 17:51:48;;;;;;;155.07;59.35;;;-1.50;99.90;;;;;;5036311;28;20103;-70
2022/12/17 17:54:14;;;;;;;137.63;56.42;;;-1.50;99.90;;;;;;5036601;28;20038;-70
2022/12/17 17:56:41;;;;;;;143.90;59.08;;;-1.50;99.90;;;;;;5036661;28;20445;-70
2022/12/17 17:59:10;;;;;;;145.13;58.88;;;-1.50;99.90;;;;;;5036659;28;20091;-69
2022/12/17 18:01:42;;;;;;;153.32;62.38;;;-1.50;99.90;;;;;;5036156;28;20037;-70
2022/12/17 18:04:12;;;;;;;154.88;60.47;;;-1.50;99.90;;;;;;5036034;28;20099;-70
2022/12/17 18:06:40;;;;;;;145.50;59.30;;;-1.50;99.90;;;;;;5036396;28;20372;-70
2022/12/17 18:09:07;;;;;;;137.85;59.33;;;-1.60;99.90;;;;;;5036367;28;20465;-70
2022/12/17 18:11:34;;;;;;;140.25;60.33;;;-1.50;99.90;;;;;;5036362;28;20061;-70
2022/12/17 18:14:01;;;;;;;126.97;56.25;;;-1.60;99.90;;;;;;5036247;28;20140;-70
2022/12/17 18:16:34;;;;;;;129.02;56.47;;;-1.60;99.90;;;;;;5018948;28;20120;-70
2022/12/17 18:19:12;;;;;;;130.15;55.47;;;-1.60;99.90;;;;;;5036056;28;20064;-69
2022/12/17 18:21:38;;;;;;;130.50;56.85;;;-1.60;99.90;;;;;;5036116;28;20102;-68
2022/12/17 18:24:09;;;;;;;125.38;56.30;;;-1.60;99.90;;;;;;5036269;28;20484;-70
2022/12/17 18:26:38;;;;;;;123.20;53.60;;;-1.70;99.90;;;;;;5036132;28;20049;-69
2022/12/17 18:29:27;;;;;;;123.40;56.72;;;-1.60;99.90;;;;;;5036115;28;20124;-68
2022/12/17 18:31:54;;;;;;;133.80;58.10;;;-1.70;99.90;;;;;;5035468;28;20042;-70
2022/12/17 18:34:25;;;;;;;134.80;59.10;;;-1.70;99.90;;;;;;5035940;28;20038;-69
2022/12/17 18:36:51;;;;;;;119.60;57.53;;;-1.70;99.90;;;;;;5018811;28;20060;-69
2022/12/17 18:39:20;;;;;;;124.95;55.90;;;-1.10;99.90;;;;;;5035401;28;20041;-70
2022/12/17 18:44:33;;;;;;;133.82;59.42;;;-1.70;99.90;;;;;;5035639;28;20053;-69
2022/12/17 18:46:59;;;;;;;129.80;60.55;;;-1.70;99.90;;;;;;5035070;28;20114;-70
2022/12/17 18:49:25;;;;;;;145.70;67.35;;;-1.80;99.90;;;;;;5035234;28;20490;-70
2022/12/17 18:51:52;;;;;;;148.27;65.40;;;-1.80;99.90;;;;;;5035213;28;20067;-70
2022/12/17 18:54:23;;;;;;;124.78;60.50;;;-1.80;99.90;;;;;;5018142;28;20060;-70
2022/12/17 18:56:50;;;;;;;132.35;61.90;;;-1.80;99.90;;;;;;5035136;28;20060;-71
2022/12/17 18:59:18;;;;;;;129.45;60.95;;;-1.80;99.90;;;;;;5017285;28;20053;-70
2022/12/17 19:01:45;;;;;;;129.50;61.88;;;-1.80;99.90;;;;;;5017493;28;20045;-70
2022/12/17 19:04:13;;;;;;;132.10;62.63;;;-1.80;99.90;;;;;;5035169;28;20042;-70
2022/12/17 19:06:39;;;;;;;125.35;60.17;;;-1.80;99.90;;;;;;5018073;28;20054;-70
2022/12/17 19:09:06;;;;;;;127.40;62.05;;;-1.70;99.90;;;;;;5035233;28;20247;-69
2022/12/17 19:11:34;;;;;;;136.57;64.07;;;-1.70;99.90;;;;;;5034793;28;20492;-70
2022/12/17 19:14:00;;;;;;;142.02;66.63;;;-1.70;99.90;;;;;;5035261;28;20053;-69
2022/12/17 19:16:27;;;;;;;140.63;67.32;;;-1.70;99.90;;;;;;5017211;28;20037;-70
2022/12/17 19:18:55;;;;;;;151.20;68.82;;;-1.70;99.90;;;;;;5035003;28;20052;-69
2022/12/17 19:21:22;;;;;;;152.52;71.35;;;-1.70;99.90;;;;;;5034884;28;20085;-69
2022/12/17 19:23:49;;;;;;;177.75;96.95;;;-1.70;99.90;;;;;;5034719;28;20041;-69
2022/12/17 19:26:19;;;;;;;153.68;78.43;;;-1.50;99.90;;;;;;5017841;28;20053;-70
2022/12/17 19:28:47;;;;;;;168.35;85.28;;;-1.80;99.90;;;;;;5017508;28;20049;-70
2022/12/17 19:31:15;;;;;;;139.95;70.97;;;-1.80;99.90;;;;;;5034517;28;20140;-69
2022/12/17 19:33:41;;;;;;;141.65;67.05;;;-1.80;99.90;;;;;;5034666;28;20095;-70
2022/12/17 19:36:15;;;;;;;145.95;71.30;;;-1.80;99.90;;;;;;5034260;28;20052;-70
2022/12/17 19:38:41;;;;;;;142.48;72.97;;;-1.80;99.90;;;;;;5034710;28;20042;-71
2022/12/17 19:41:15;;;;;;;142.95;72.65;;;-1.80;99.90;;;;;;5034545;28;20072;-69
2022/12/17 19:43:41;;;;;;;147.68;75.47;;;-1.80;99.90;;;;;;5033878;28;20412;-69
2022/12/17 19:46:10;;;;;;;146.65;74.57;;;-1.90;99.90;;;;;;5017309;28;20412;-70
2022/12/17 19:48:37;;;;;;;149.38;79.95;;;-1.80;99.90;;;;;;5038288;28;20118;-69
2022/12/17 19:51:05;;;;;;;145.88;76.38;;;-1.80;99.90;;;;;;5034631;28;20358;-70
2022/12/17 19:53:32;;;;;;;150.93;78.10;;;-1.90;99.90;;;;;;5034253;28;20179;-70
2022/12/17 19:56:08;;;;;;;139.68;76.60;;;-1.80;99.90;;;;;;5034061;28;20064;-71
2022/12/17 19:58:33;;;;;;;152.10;75.88;;;-1.90;99.90;;;;;;5033706;28;20140;-70
2022/12/17 20:01:11;;;;;;;147.55;78.07;;;-1.80;99.90;;;;;;5034596;28;20120;-70
2022/12/17 20:03:38;;;;;;;149.00;73.47;;;-1.80;99.90;;;;;;5033282;28;20461;-70
2022/12/17 20:06:05;;;;;;;155.73;74.78;;;-1.90;99.90;;;;;;5034821;28;20053;-70
2022/12/17 20:08:31;;;;;;;130.80;73.65;;;-1.90;99.90;;;;;;5034017;28;20050;-69
2022/12/17 20:10:58;;;;;;;143.30;78.93;;;-1.90;99.90;;;;;;5034257;28;20037;-70
2022/12/17 20:13:24;;;;;;;133.88;73.30;;;-1.90;99.90;;;;;;5034289;28;20120;-70
2022/12/17 20:16:02;;;;;;;140.10;75.40;;;-2.00;99.90;;;;;;5033967;28;20120;-69
2022/12/17 20:18:28;;;;;;;139.65;74.80;;;-2.00;99.90;;;;;;5034393;28;20458;-71
2022/12/17 20:21:02;;;;;;;146.75;78.90;;;-2.10;99.90;;;;;;5033811;28;20060;-70
2022/12/17 20:23:28;;;;;;;143.25;77.90;;;-2.10;99.90;;;;;;5033999;28;20465;-70
2022/12/17 20:26:05;;;;;;;143.30;77.32;;;-2.10;99.90;;;;;;5034186;28;20157;-70
2022/12/17 20:28:31;;;;;;;148.23;76.93;;;-1.80;99.90;;;;;;5033999;28;20049;-70
2022/12/17 20:30:56;;;;;;;155.98;81.90;;;-1.40;99.90;;;;;;5033511;28;20045;-70
2022/12/17 20:33:22;;;;;;;160.70;80.50;;;-2.00;99.90;;;;;;5033619;28;20046;-70
2022/12/17 20:35:48;;;;;;;148.43;76.88;;;-2.00;99.90;;;;;;5033796;28;20517;-70
2022/12/17 20:38:13;;;;;;;150.15;76.70;;;-2.00;99.90;;;;;;5033865;28;20053;-71
2022/12/17 20:40:40;;;;;;;178.30;85.80;;;-2.00;99.90;;;;;;5034074;28;20053;-70
2022/12/17 20:43:06;;;;;;;166.23;85.43;;;-2.00;99.90;;;;;;5034171;28;20128;-71
2022/12/17 20:45:32;;;;;;;159.57;81.35;;;-2.10;99.90;;;;;;5034183;28;20045;-69
2022/12/17 20:47:58;;;;;;;158.98;77.50;;;-2.10;99.90;;;;;;5033652;28;20512;-69
2022/12/17 20:50:24;;;;;;;164.75;81.10;;;-2.10;99.90;;;;;;5033639;28;20477;-69
2022/12/17 20:52:49;;;;;;;156.18;78.80;;;-2.20;99.90;;;;;;5033395;28;20466;-69
2022/12/17 20:55:15;;;;;;;162.13;78.53;;;-2.20;99.90;;;;;;5033786;28;20120;-70
2022/12/17 20:57:41;;;;;;;162.55;81.82;;;-2.00;99.90;;;;;;5033824;28;20053;-70
2022/12/17 21:00:07;;;;;;;154.88;76.40;;;-2.10;99.90;;;;;;5033898;28;20056;-69
2022/12/17 21:02:33;;;;;;;163.63;78.97;;;-2.10;99.90;;;;;;5016069;28;20381;-68
2022/12/17 21:04:58;;;;;;;157.93;77.80;;;-2.20;99.90;;;;;;5015991;28;20037;-70
2022/12/17 21:07:24;;;;;;;165.63;79.15;;;-2.20;99.90;;;;;;5000114;28;20203;-71
2022/12/17 21:09:53;;;;;;;165.15;81.15;;;-2.20;99.90;;;;;;5036615;28;20358;-72
2022/12/17 21:12:19;;;;;;;155.55;76.32;;;-2.20;99.90;;;;;;5034578;28;20056;-70
2022/12/17 21:14:44;;;;;;;163.15;75.95;;;-2.20;99.90;;;;;;5017543;28;20045;-70
2022/12/17 21:17:10;;;;;;;158.77;76.30;;;-2.30;99.90;;;;;;5038236;28;20053;-71
2022/12/17 21:19:36;;;;;;;168.48;75.30;;;-2.20;99.90;;;;;;5020184;28;20235;-71
2022/12/17 21:22:01;;;;;;;149.80;73.95;;;-2.20;99.90;;;;;;5037501;28;20048;-71
2022/12/17 21:24:27;;;;;;;165.80;79.38;;;-2.30;99.90;;;;;;5020071;28;20121;-71
2022/12/17 21:26:53;;;;;;;151.00;75.25;;;-2.30;99.90;;;;;;5037575;28;20091;-71
2022/12/17 21:29:18;;;;;;;147.60;73.68;;;-2.20;99.90;;;;;;5037735;28;20042;-71
2022/12/17 21:31:46;;;;;;;148.50;76.35;;;-2.20;99.90;;;;;;5037785;28;20427;-71
2022/12/17 21:34:15;;;;;;;167.13;80.13;;;-2.30;99.90;;;;;;5037050;28;20470;-71
2022/12/17 21:36:41;;;;;;;158.85;80.18;;;-2.30;99.90;;;;;;5037413;28;20073;-71
2022/12/17 21:39:08;;;;;;;171.50;83.53;;;-2.30;99.90;;;;;;5037504;28;20057;-71
2022/12/17 21:41:36;;;;;;;166.10;75.63;;;-2.30;99.90;;;;;;5037354;28;20450;-71
2022/12/17 21:44:05;;;;;;;168.10;77.78;;;-2.30;99.90;;;;;;5037487;28;20041;-70
2022/12/17 21:46:31;;;;;;;144.98;73.55;;;-2.20;99.90;;;;;;5037248;28;20442;-71
2022/12/17 21:48:58;;;;;;;152.95;71.25;;;-2.20;99.90;;;;;;5036981;28;20053;-71
2022/12/17 21:51:25;;;;;;;179.55;80.22;;;-2.20;99.90;;;;;;5037346;28;20137;-71
2022/12/17 21:53:56;;;;;;;168.68;80.28;;;-2.20;99.90;;;;;;5037736;28;20408;-70
2022/12/17 21:56:22;;;;;;;155.85;77.47;;;-2.00;99.90;;;;;;5037158;28;20045;-70
2022/12/17 21:58:48;;;;;;;154.23;78.63;;;-1.60;99.90;;;;;;5037291;28;20085;-70
2022/12/17 22:01:20;;;;;;;170.73;87.20;;;-1.60;99.90;;;;;;5037377;28;20057;-70
2022/12/17 22:03:47;;;;;;;154.80;76.03;;;-2.20;99.90;;;;;;5018604;28;20065;-70
2022/12/17 22:06:15;;;;;;;159.32;77.70;;;-2.20;99.90;;;;;;5037089;28;20042;-70
2022/12/17 22:08:42;;;;;;;152.18;75.75;;;-2.20;99.90;;;;;;5036819;28;20052;-70
2022/12/17 22:11:13;;;;;;;175.52;87.80;;;-2.20;99.90;;;;;;5037049;28;20366;-70
2022/12/17 22:16:25;;;;;;;164.57;75.90;;;-2.30;99.90;;;;;;5036869;28;20045;-70
2022/12/17 22:18:51;;;;;;;159.30;69.35;;;-1.90;99.90;;;;;;5019608;28;20049;-70
2022/12/17 22:21:17;;;;;;;153.88;66.55;;;-2.30;99.90;;;;;;5002821;28;20054;-70
2022/12/17 22:23:47;;;;;;;154.40;69.80;;;-2.30;99.90;;;;;;5018874;28;20049;-70
2022/12/17 22:26:15;;;;;;;150.05;67.45;;;-2.30;99.90;;;;;;5035926;28;20041;-70
2022/12/17 22:28:48;;;;;;;151.55;65.50;;;-2.40;99.90;;;;;;5036359;28;20442;-70
2022/12/17 22:34:00;;;;;;;145.10;67.05;;;-2.40;99.90;;;;;;5036722;28;20045;-70
2022/12/17 22:36:30;;;;;;;155.05;65.90;;;-2.40;99.90;;;;;;5036810;28;20351;-70
2022/12/17 22:38:59;;;;;;;157.45;69.70;;;-2.50;99.90;;;;;;5036180;28;20099;-70
2022/12/17 22:44:09;;;;;;;140.27;64.88;;;-2.50;99.90;;;;;;5036561;28;20050;-70
2022/12/17 22:46:35;;;;;;;161.95;72.82;;;-2.20;99.90;;;;;;5036530;28;20532;-69
2022/12/17 22:49:01;;;;;;;149.68;69.57;;;-2.40;99.90;;;;;;5036565;28;20064;-70
2022/12/17 22:51:26;;;;;;;165.55;72.07;;;-2.40;99.90;;;;;;5036315;28;20362;-70
2022/12/17 22:53:52;;;;;;;213.90;105.70;;;-2.40;99.90;;;;;;5036019;28;20045;-71
2022/12/17 22:56:18;;;;;;;164.38;69.10;;;-2.40;99.90;;;;;;5019231;28;20114;-70
2022/12/17 22:58:44;;;;;;;155.93;68.38;;;-2.40;99.90;;;;;;5036387;28;20095;-70
2022/12/17 23:01:10;;;;;;;173.13;71.00;;;-2.40;99.90;;;;;;5036600;28;20085;-70
2022/12/17 23:03:36;;;;;;;155.20;65.57;;;-2.50;99.90;;;;;;5036358;28;20476;-70
2022/12/17 23:06:08;;;;;;;149.70;65.20;;;-2.50;99.90;;;;;;5036762;28;20049;-70
2022/12/17 23:08:34;;;;;;;150.43;63.95;;;-2.60;99.90;;;;;;5035568;28;20053;-70
2022/12/17 23:11:12;;;;;;;137.48;64.57;;;-2.30;99.90;;;;;;5035961;28;20049;-70
2022/12/17 23:13:38;;;;;;;145.45;62.47;;;-2.60;99.90;;;;;;5035301;28;20045;-70
2022/12/17 23:16:05;;;;;;;133.70;60.97;;;-2.60;99.90;;;;;;5036022;28;20090;-71
2022/12/17 23:18:31;;;;;;;136.90;67.68;;;-2.60;99.90;;;;;;5035755;28;20068;-70
2022/12/17 23:21:12;;;;;;;119.65;59.13;;;-2.60;99.90;;;;;;5036226;28;20053;-70
2022/12/17 23:23:38;;;;;;;144.77;65.50;;;-2.60;99.90;;;;;;5035474;28;20045;-70
2022/12/17 23:26:07;;;;;;;135.38;60.40;;;-2.60;99.90;;;;;;5035729;28;20034;-70
2022/12/17 23:28:32;;;;;;;137.88;61.08;;;-2.60;99.90;;;;;;5035828;28;20045;-70
2022/12/17 23:31:05;;;;;;;146.55;64.32;;;-2.60;99.90;;;;;;5036198;28;20057;-71
2022/12/17 23:33:30;;;;;;;126.05;60.90;;;-2.60;99.90;;;;;;5035356;28;20065;-70
2022/12/17 23:36:08;;;;;;;149.13;65.43;;;-2.60;99.90;;;;;;5036016;28;20041;-70
2022/12/17 23:38:34;;;;;;;142.15;62.00;;;-2.60;99.90;;;;;;5034080;28;20049;-70
2022/12/17 23:41:05;;;;;;;138.48;70.30;;;-2.60;99.90;;;;;;5035453;28;20037;-71
2022/12/17 23:43:31;;;;;;;127.50;59.08;;;-2.60;99.90;;;;;;5035415;28;20393;-70
2022/12/17 23:45:57;;;;;;;138.32;59.78;;;-2.60;99.90;;;;;;5035624;28;20038;-70
2022/12/17 23:48:23;;;;;;;141.45;62.15;;;-2.70;99.90;;;;;;5035779;28;20410;-70
2022/12/17 23:50:49;;;;;;;132.07;63.00;;;-2.70;99.90;;;;;;5035553;28;20076;-69
2022/12/17 23:53:15;;;;;;;131.38;60.33;;;-2.70;99.90;;;;;;5035504;28;20099;-70
2022/12/17 23:55:40;;;;;;;130.38;59.63;;;-2.70;99.90;;;;;;5035160;28;20069;-70
2022/12/17 23:58:06;;;;;;;130.65;59.47;;;-2.60;99.90;;;;;;5035342;28;20053;-70
